RJNY(METAR)
12/04 21:00
METAR RJNY 041200Z 27008KT 9999 FEW030 BKN140 BKN180 13/04 Q1018 RMK
1CU030 6AC140 7AC180 A3007=
戻る
トップページへ戻る
IMOC Co,.Ltd.